createdAt,value
2023-02-07T00:01:22.271Z,5.70
2023-02-07T00:03:49.762Z,5.70
2023-02-07T00:06:21.383Z,5.60
2023-02-07T00:08:48.327Z,5.27
2023-02-07T00:11:17.153Z,4.70
2023-02-07T00:13:44.582Z,5.77
2023-02-07T00:16:12.003Z,4.80
2023-02-07T00:18:40.407Z,5.30
2023-02-07T00:21:09.090Z,5.33
2023-02-07T00:23:36.500Z,5.47
2023-02-07T00:26:04.506Z,4.63
2023-02-07T00:28:31.475Z,4.70
2023-02-07T00:31:21.096Z,4.57
2023-02-07T00:33:49.163Z,4.90
2023-02-07T00:36:23.000Z,5.67
2023-02-07T00:38:50.343Z,5.70
2023-02-07T00:41:18.616Z,4.77
2023-02-07T00:43:47.001Z,5.17
2023-02-07T00:46:14.383Z,5.17
2023-02-07T00:48:41.250Z,5.13
2023-02-07T00:51:10.025Z,6.00
2023-02-07T00:53:36.927Z,5.40
2023-02-07T00:56:03.631Z,6.57
2023-02-07T00:58:30.261Z,7.17
2023-02-07T01:00:56.984Z,5.97
2023-02-07T01:03:23.539Z,5.63
2023-02-07T01:05:50.029Z,5.00
2023-02-07T01:08:16.924Z,5.63
2023-02-07T01:10:45.225Z,5.30
2023-02-07T01:13:13.543Z,5.60
2023-02-07T01:15:43.197Z,6.13
2023-02-07T01:18:10.601Z,6.83
2023-02-07T01:20:37.155Z,6.00
2023-02-07T01:23:05.523Z,6.17
2023-02-07T01:25:33.106Z,6.93
2023-02-07T01:27:59.751Z,6.37
2023-02-07T01:30:26.846Z,7.00
2023-02-07T01:32:53.416Z,6.60
2023-02-07T01:35:20.614Z,5.90
2023-02-07T01:37:47.135Z,5.70
2023-02-07T01:40:13.633Z,5.30
2023-02-07T01:42:40.586Z,5.90
2023-02-07T01:45:23.235Z,5.63
2023-02-07T01:47:52.673Z,5.17
2023-02-07T01:50:20.063Z,5.83
2023-02-07T01:52:46.865Z,6.10
2023-02-07T01:55:19.843Z,5.50
2023-02-07T01:57:46.411Z,5.00
2023-02-07T02:00:16.168Z,5.67
2023-02-07T02:02:43.963Z,4.90
2023-02-07T02:05:12.761Z,5.20
2023-02-07T02:07:40.093Z,5.20
2023-02-07T02:10:14.303Z,6.13
2023-02-07T02:12:41.158Z,8.10
2023-02-07T02:15:41.367Z,7.93
2023-02-07T02:18:26.609Z,6.00
2023-02-07T02:21:32.994Z,5.00
2023-02-07T02:24:35.489Z,5.60
2023-02-07T02:27:39.914Z,6.33
2023-02-07T02:30:34.535Z,5.50
2023-02-07T02:33:29.540Z,6.40
2023-02-07T02:36:12.194Z,6.80
2023-02-07T02:38:46.912Z,6.53
2023-02-07T02:41:19.700Z,6.10
2023-02-07T02:43:53.885Z,7.00
2023-02-07T02:46:25.064Z,6.30
2023-02-07T02:48:53.425Z,7.27
2023-02-07T02:51:20.069Z,6.93
2023-02-07T02:53:58.043Z,7.07
2023-02-07T02:57:03.217Z,7.10
2023-02-07T03:00:16.944Z,7.50
2023-02-07T03:03:08.384Z,6.43
2023-02-07T03:06:17.402Z,8.03
2023-02-07T03:09:03.095Z,7.00
2023-02-07T03:11:37.804Z,6.93
2023-02-07T03:14:19.885Z,6.13
2023-02-07T03:16:56.582Z,6.33
2023-02-07T03:19:49.741Z,6.10
2023-02-07T03:22:21.069Z,6.30
2023-02-07T03:24:54.395Z,7.37
2023-02-07T03:27:23.372Z,6.17
2023-02-07T03:29:57.778Z,6.80
2023-02-07T03:32:30.386Z,8.07
2023-02-07T03:35:17.116Z,7.90
2023-02-07T03:37:51.112Z,7.90
2023-02-07T03:40:18.501Z,7.00
2023-02-07T03:42:59.685Z,7.97
2023-02-07T03:45:26.347Z,8.20
2023-02-07T03:47:53.397Z,7.00
2023-02-07T03:50:19.901Z,6.87
2023-02-07T03:52:46.583Z,8.50
2023-02-07T03:55:14.058Z,8.10
2023-02-07T03:57:40.925Z,7.27
2023-02-07T04:00:08.890Z,7.03
2023-02-07T04:02:43.263Z,7.90
2023-02-07T04:05:09.779Z,6.67
2023-02-07T04:07:36.461Z,7.00
2023-02-07T04:10:04.582Z,7.87
2023-02-07T04:12:32.881Z,6.67
2023-02-07T04:15:00.679Z,6.77
2023-02-07T04:17:31.033Z,7.03
2023-02-07T04:19:57.864Z,8.00
2023-02-07T04:22:24.557Z,7.20
2023-02-07T04:24:51.073Z,7.93
2023-02-07T04:27:17.684Z,6.57
2023-02-07T04:29:44.226Z,7.00
2023-02-07T04:32:11.020Z,8.10
2023-02-07T04:34:37.822Z,7.63
2023-02-07T04:37:04.818Z,8.37
2023-02-07T04:39:31.419Z,8.30
2023-02-07T04:41:58.463Z,7.00
2023-02-07T04:44:25.654Z,7.23
2023-02-07T04:46:52.172Z,8.50
2023-02-07T04:49:18.657Z,8.67
2023-02-07T04:51:45.364Z,7.00
2023-02-07T04:54:11.896Z,7.23
2023-02-07T04:56:38.401Z,7.43
2023-02-07T04:59:04.910Z,8.03
2023-02-07T05:01:32.051Z,8.63
2023-02-07T05:03:58.590Z,5.97
2023-02-07T05:06:25.139Z,8.03
2023-02-07T05:08:51.658Z,8.00
2023-02-07T05:11:19.460Z,7.47
2023-02-07T05:13:46.345Z,8.47
2023-02-07T05:16:12.833Z,8.00
2023-02-07T05:18:39.573Z,7.60
2023-02-07T05:21:06.369Z,9.23
2023-02-07T05:23:32.948Z,7.30
2023-02-07T05:26:00.074Z,11.07
2023-02-07T05:28:26.580Z,13.00
2023-02-07T05:30:55.146Z,15.30
2023-02-07T05:33:22.312Z,10.30
2023-02-07T05:35:48.829Z,13.07
2023-02-07T05:38:17.714Z,11.30
2023-02-07T05:40:44.929Z,12.20
2023-02-07T05:43:13.015Z,15.60
2023-02-07T05:45:40.155Z,12.87
2023-02-07T05:48:07.026Z,12.43
2023-02-07T05:50:34.470Z,10.47
2023-02-07T05:53:09.675Z,12.03
2023-02-07T05:55:36.570Z,10.60
2023-02-07T05:58:03.869Z,10.00
2023-02-07T06:00:30.611Z,9.00
2023-02-07T06:02:57.124Z,9.50
2023-02-07T06:05:24.710Z,10.90
2023-02-07T06:07:52.033Z,9.90
2023-02-07T06:10:18.851Z,11.57
2023-02-07T06:12:45.526Z,11.23
2023-02-07T06:15:12.102Z,9.23
2023-02-07T06:17:38.668Z,10.73
2023-02-07T06:20:05.811Z,12.30
2023-02-07T06:22:33.724Z,10.57
2023-02-07T06:25:00.385Z,12.27
2023-02-07T06:27:27.066Z,10.40
2023-02-07T06:29:53.569Z,10.17
2023-02-07T06:32:20.247Z,10.20
2023-02-07T06:34:46.774Z,11.20
2023-02-07T06:37:13.297Z,10.97
2023-02-07T06:39:40.168Z,10.00
2023-02-07T06:42:06.683Z,9.57
2023-02-07T06:44:33.169Z,11.33
2023-02-07T06:46:59.671Z,9.60
2023-02-07T06:49:26.240Z,8.70
2023-02-07T06:51:52.974Z,9.70
2023-02-07T06:54:19.576Z,8.80
2023-02-07T06:56:46.075Z,10.10
2023-02-07T06:59:12.636Z,10.50
2023-02-07T07:01:39.192Z,10.17
2023-02-07T07:04:06.415Z,10.40
2023-02-07T07:06:33.408Z,10.73
2023-02-07T07:09:00.545Z,10.07
2023-02-07T07:11:27.077Z,10.70
2023-02-07T07:13:53.564Z,11.37
2023-02-07T07:16:20.216Z,11.83
2023-02-07T07:18:46.803Z,13.50
2023-02-07T07:21:13.306Z,10.90
2023-02-07T07:23:39.930Z,11.00
2023-02-07T07:26:06.440Z,12.00
2023-02-07T07:28:32.980Z,12.60
2023-02-07T07:31:05.279Z,12.00
2023-02-07T07:33:32.216Z,12.50
2023-02-07T07:36:00.131Z,11.40
2023-02-07T07:38:28.020Z,12.57
2023-02-07T07:40:54.792Z,11.73
2023-02-07T07:43:21.609Z,11.37
2023-02-07T07:45:58.186Z,12.20
2023-02-07T07:48:25.717Z,12.07
2023-02-07T07:50:53.086Z,11.70
2023-02-07T07:53:20.583Z,12.60
2023-02-07T07:55:55.479Z,11.70
2023-02-07T07:58:23.769Z,12.23
2023-02-07T08:00:50.527Z,13.37
2023-02-07T08:03:19.152Z,17.97
2023-02-07T08:05:46.534Z,17.90
2023-02-07T08:08:13.471Z,21.20
2023-02-07T08:10:40.860Z,18.07
2023-02-07T08:13:08.598Z,16.00
2023-02-07T08:15:35.524Z,14.37
2023-02-07T08:18:02.643Z,13.40
2023-02-07T08:20:29.160Z,12.57
2023-02-07T08:22:57.508Z,13.60
2023-02-07T08:25:24.854Z,13.83
2023-02-07T08:27:51.511Z,13.73
2023-02-07T08:30:19.189Z,13.80
2023-02-07T08:32:45.682Z,13.10
2023-02-07T08:35:12.208Z,14.50
2023-02-07T08:37:38.864Z,14.17
2023-02-07T08:40:06.631Z,15.10
2023-02-07T08:42:33.135Z,14.87
2023-02-07T08:44:59.650Z,14.40
2023-02-07T08:47:26.297Z,13.97
2023-02-07T08:49:53.434Z,12.90
2023-02-07T08:52:20.209Z,14.40
2023-02-07T08:54:46.735Z,14.70
2023-02-07T08:57:13.415Z,13.23
2023-02-07T08:59:39.935Z,13.43
2023-02-07T09:02:06.648Z,13.53
2023-02-07T09:04:33.684Z,13.00
2023-02-07T09:07:00.609Z,14.70
2023-02-07T09:09:27.212Z,14.50
2023-02-07T09:11:53.700Z,13.00
2023-02-07T09:14:20.221Z,14.03
2023-02-07T09:16:46.750Z,14.60
2023-02-07T09:19:13.850Z,14.03
2023-02-07T09:21:40.839Z,13.00
2023-02-07T09:24:07.483Z,12.17
2023-02-07T09:26:35.201Z,13.30
2023-02-07T09:29:02.293Z,13.10
2023-02-07T09:31:28.965Z,12.07
2023-02-07T09:33:55.536Z,11.33
2023-02-07T09:36:25.001Z,13.20
2023-02-07T09:38:52.577Z,12.13
2023-02-07T09:41:29.041Z,13.17
2023-02-07T09:44:14.559Z,12.03
2023-02-07T09:46:55.020Z,12.60
2023-02-07T09:49:36.586Z,13.33
2023-02-07T09:52:09.271Z,12.83
2023-02-07T09:54:43.570Z,12.30
2023-02-07T09:57:37.863Z,11.27
2023-02-07T10:00:24.368Z,12.20
2023-02-07T10:03:01.223Z,11.93
2023-02-07T10:05:36.806Z,11.33
2023-02-07T10:08:03.620Z,11.53
2023-02-07T10:10:45.754Z,12.13
2023-02-07T10:13:18.052Z,11.17
2023-02-07T10:15:57.135Z,10.80
2023-02-07T10:18:36.272Z,12.47
2023-02-07T10:21:21.519Z,11.37
2023-02-07T10:24:10.997Z,11.53
2023-02-07T10:26:56.376Z,10.43
2023-02-07T10:29:48.240Z,9.70
2023-02-07T10:32:20.846Z,11.87
2023-02-07T10:34:47.889Z,11.10
2023-02-07T10:37:30.040Z,10.10
2023-02-07T10:40:15.075Z,10.00
2023-02-07T10:42:46.059Z,10.20
2023-02-07T10:45:14.597Z,10.00
2023-02-07T10:47:42.048Z,9.80
2023-02-07T10:50:29.286Z,10.17
2023-02-07T10:52:58.543Z,9.77
2023-02-07T10:55:39.578Z,8.80
2023-02-07T10:58:17.683Z,10.17
2023-02-07T11:00:51.492Z,10.80
2023-02-07T11:03:21.347Z,9.20
2023-02-07T11:06:02.800Z,8.50
2023-02-07T11:08:33.340Z,9.17
2023-02-07T11:11:23.676Z,9.10
2023-02-07T11:13:52.142Z,9.03
2023-02-07T11:16:20.828Z,7.50
2023-02-07T11:19:01.119Z,6.83
2023-02-07T11:21:33.439Z,6.90
2023-02-07T11:24:08.467Z,8.17
2023-02-07T11:26:40.738Z,7.80
2023-02-07T11:29:14.086Z,9.47
2023-02-07T11:31:44.265Z,8.33
2023-02-07T11:34:41.143Z,8.53
2023-02-07T11:37:16.858Z,9.20
2023-02-07T11:39:44.670Z,8.47
2023-02-07T11:42:14.555Z,9.50
2023-02-07T11:44:43.153Z,9.57
2023-02-07T11:47:15.779Z,7.80
2023-02-07T11:49:50.522Z,8.50
2023-02-07T11:52:17.411Z,8.00
2023-02-07T11:54:51.322Z,8.30
2023-02-07T11:57:19.790Z,8.40
2023-02-07T11:59:55.524Z,6.60
2023-02-07T12:02:28.406Z,6.30
2023-02-07T12:04:55.262Z,7.17
2023-02-07T12:07:32.242Z,7.63
2023-02-07T12:10:01.630Z,7.40
2023-02-07T12:12:42.466Z,6.80
2023-02-07T12:15:23.593Z,7.07
2023-02-07T12:18:09.794Z,6.37
2023-02-07T12:20:46.131Z,6.50
2023-02-07T12:23:41.696Z,6.60
2023-02-07T12:26:25.762Z,6.97
2023-02-07T12:29:14.144Z,6.00
2023-02-07T12:32:07.359Z,6.00
2023-02-07T12:34:56.161Z,6.60
2023-02-07T12:37:39.281Z,6.27
2023-02-07T12:40:28.206Z,5.77
2023-02-07T12:43:03.802Z,5.90
2023-02-07T12:45:48.727Z,6.57
2023-02-07T12:48:37.100Z,5.80
2023-02-07T12:51:25.025Z,6.00
2023-02-07T12:54:03.416Z,5.90
2023-02-07T12:56:42.682Z,5.77
2023-02-07T12:59:35.711Z,5.47
2023-02-07T13:02:33.436Z,5.70
2023-02-07T13:05:28.280Z,6.40
2023-02-07T13:08:17.699Z,5.80
2023-02-07T13:10:59.207Z,5.70
2023-02-07T13:13:41.348Z,6.67
2023-02-07T13:16:10.863Z,6.03
2023-02-07T13:18:51.839Z,7.60
2023-02-07T13:21:58.135Z,7.20
2023-02-07T13:24:27.359Z,6.90
2023-02-07T13:27:07.504Z,6.67
2023-02-07T13:29:35.573Z,7.53
2023-02-07T13:32:12.195Z,6.50
2023-02-07T13:34:51.477Z,6.23
2023-02-07T13:37:19.220Z,6.67
2023-02-07T13:39:58.794Z,6.90
2023-02-07T13:42:43.223Z,6.23
2023-02-07T13:45:32.041Z,6.97
2023-02-07T13:47:58.581Z,6.53
2023-02-07T13:50:41.078Z,7.40
2023-02-07T13:53:33.017Z,7.77
2023-02-07T13:56:08.748Z,8.07
2023-02-07T13:58:54.106Z,7.60
2023-02-07T14:01:26.358Z,7.77
2023-02-07T14:04:09.486Z,8.47
2023-02-07T14:06:42.904Z,7.83
2023-02-07T14:09:21.559Z,6.37
2023-02-07T14:11:56.941Z,7.13
2023-02-07T14:14:26.311Z,6.67
2023-02-07T14:16:54.883Z,7.70
2023-02-07T14:19:48.892Z,7.90
2023-02-07T14:22:19.870Z,7.63
2023-02-07T14:24:50.049Z,8.23
2023-02-07T14:27:31.548Z,7.70
2023-02-07T14:30:12.756Z,7.67
2023-02-07T14:32:59.336Z,8.03
2023-02-07T14:35:25.777Z,7.27
2023-02-07T14:37:56.367Z,8.23
2023-02-07T14:40:32.767Z,8.93
2023-02-07T14:43:03.903Z,8.23
2023-02-07T14:45:33.894Z,7.20
2023-02-07T14:48:00.840Z,8.77
2023-02-07T14:50:33.978Z,7.30
2023-02-07T14:53:04.501Z,6.90
2023-02-07T14:55:51.563Z,6.50
2023-02-07T14:58:28.155Z,7.33
2023-02-07T15:00:58.843Z,7.07
2023-02-07T15:03:30.152Z,6.70
2023-02-07T15:06:01.942Z,7.17
2023-02-07T15:08:30.636Z,6.77
2023-02-07T15:11:07.050Z,6.63
2023-02-07T15:13:39.884Z,7.53
2023-02-07T15:16:19.703Z,7.70
2023-02-07T15:18:53.531Z,6.40
2023-02-07T15:21:25.847Z,7.07
2023-02-07T15:24:08.652Z,6.83
2023-02-07T15:26:36.528Z,7.53
2023-02-07T15:29:18.126Z,7.10
2023-02-07T15:31:45.386Z,7.00
2023-02-07T15:34:19.310Z,6.63
2023-02-07T15:36:48.142Z,7.90
2023-02-07T15:39:17.234Z,8.87
2023-02-07T15:41:49.669Z,9.33
2023-02-07T15:44:21.053Z,7.63
2023-02-07T15:46:50.636Z,8.00
2023-02-07T15:49:40.728Z,8.57
2023-02-07T15:52:17.429Z,9.20
2023-02-07T15:54:48.199Z,8.67
2023-02-07T15:57:34.888Z,9.37
2023-02-07T16:00:06.960Z,8.50
2023-02-07T16:02:49.730Z,9.53
2023-02-07T16:05:23.310Z,10.60
2023-02-07T16:07:49.837Z,10.30
2023-02-07T16:10:32.991Z,10.23
2023-02-07T16:13:01.978Z,10.30
2023-02-07T16:15:34.846Z,10.63
2023-02-07T16:18:03.316Z,12.00
2023-02-07T16:20:33.383Z,10.33
2023-02-07T16:23:02.963Z,11.20
2023-02-07T16:25:32.985Z,10.50
2023-02-07T16:28:00.529Z,9.50
2023-02-07T16:30:35.148Z,9.30
2023-02-07T16:33:05.920Z,10.67
2023-02-07T16:35:32.894Z,10.80
2023-02-07T16:37:59.591Z,11.57
2023-02-07T16:40:26.754Z,9.93
2023-02-07T16:42:55.237Z,10.90
2023-02-07T16:45:24.695Z,9.90
2023-02-07T16:47:51.260Z,10.20
2023-02-07T16:50:23.254Z,13.27
2023-02-07T16:52:51.621Z,10.90
2023-02-07T16:55:20.603Z,11.23
2023-02-07T16:57:49.212Z,13.60
2023-02-07T17:00:19.440Z,11.23
2023-02-07T17:02:48.515Z,9.57
2023-02-07T17:05:19.289Z,9.27
2023-02-07T17:07:47.277Z,8.50
2023-02-07T17:10:20.925Z,7.50
2023-02-07T17:12:47.593Z,7.67
2023-02-07T17:15:14.190Z,7.50
2023-02-07T17:17:40.776Z,8.47
2023-02-07T17:20:20.195Z,7.73
2023-02-07T17:22:48.302Z,7.90
2023-02-07T17:25:15.733Z,7.30
2023-02-07T17:27:42.490Z,9.10
2023-02-07T17:30:30.318Z,8.27
2023-02-07T17:32:58.376Z,8.97
2023-02-07T17:35:24.875Z,11.17
2023-02-07T17:37:51.409Z,16.00
2023-02-07T17:40:31.045Z,14.00
2023-02-07T17:42:58.615Z,12.37
2023-02-07T17:45:26.863Z,11.63
2023-02-07T17:47:53.911Z,13.00
2023-02-07T17:50:27.433Z,13.17
2023-02-07T17:52:53.973Z,12.77
2023-02-07T17:55:20.736Z,13.23
2023-02-07T17:57:47.383Z,13.07
2023-02-07T18:00:23.498Z,13.33
2023-02-07T18:02:50.176Z,13.10
2023-02-07T18:05:17.699Z,13.20
2023-02-07T18:07:45.606Z,14.27
2023-02-07T18:10:33.747Z,13.57
2023-02-07T18:13:00.671Z,13.70
2023-02-07T18:15:29.867Z,14.33
2023-02-07T18:17:56.559Z,12.70
2023-02-07T18:20:26.382Z,13.37
2023-02-07T18:22:55.072Z,12.77
2023-02-07T18:25:22.524Z,12.23
2023-02-07T18:27:51.032Z,13.63
2023-02-07T18:30:23.846Z,13.27
2023-02-07T18:32:50.453Z,12.20
2023-02-07T18:35:17.746Z,11.60
2023-02-07T18:37:44.596Z,13.40
2023-02-07T18:40:12.980Z,12.83
2023-02-07T18:42:39.484Z,12.00
2023-02-07T18:45:07.836Z,11.27
2023-02-07T18:47:34.487Z,13.90
2023-02-07T18:50:01.506Z,12.13
2023-02-07T18:52:28.094Z,11.70
2023-02-07T18:54:54.581Z,12.40
2023-02-07T18:57:21.078Z,11.83
2023-02-07T18:59:48.046Z,11.07
2023-02-07T19:02:15.474Z,12.17
2023-02-07T19:04:42.096Z,12.50
2023-02-07T19:07:08.889Z,11.27
2023-02-07T19:09:36.095Z,12.17
2023-02-07T19:12:02.838Z,11.37
2023-02-07T19:14:31.190Z,12.57
2023-02-07T19:16:58.860Z,10.77
2023-02-07T19:19:28.498Z,11.13
2023-02-07T19:21:55.830Z,11.07
2023-02-07T19:24:23.605Z,11.23
2023-02-07T19:26:53.437Z,11.43
2023-02-07T19:29:27.829Z,11.80
2023-02-07T19:32:00.122Z,12.43
2023-02-07T19:34:27.157Z,11.10
2023-02-07T19:36:54.038Z,12.87
2023-02-07T19:39:21.291Z,17.90
2023-02-07T19:41:48.262Z,19.30
2023-02-07T19:44:14.824Z,16.70
2023-02-07T19:46:41.649Z,15.00
2023-02-07T19:49:09.059Z,14.53
2023-02-07T19:51:36.358Z,14.60
2023-02-07T19:54:03.062Z,19.17
2023-02-07T19:56:34.572Z,24.97
2023-02-07T19:59:04.181Z,24.63
2023-02-07T20:01:34.262Z,26.23
2023-02-07T20:04:01.691Z,25.27
2023-02-07T20:06:32.424Z,23.53
2023-02-07T20:09:01.715Z,22.57
2023-02-07T20:11:28.836Z,21.33
2023-02-07T20:14:02.573Z,20.20
2023-02-07T20:16:32.946Z,19.70
2023-02-07T20:19:00.462Z,19.90
2023-02-07T20:21:29.796Z,17.43
2023-02-07T20:23:57.663Z,19.03
2023-02-07T20:26:30.352Z,15.37
2023-02-07T20:29:02.957Z,15.13
2023-02-07T20:31:31.773Z,14.93
2023-02-07T20:33:59.310Z,14.53
2023-02-07T20:36:26.479Z,15.20
2023-02-07T20:38:53.712Z,14.67
2023-02-07T20:41:29.967Z,14.37
2023-02-07T20:43:58.775Z,13.90
2023-02-07T20:46:26.449Z,14.90
2023-02-07T20:49:03.003Z,14.27
2023-02-07T20:51:29.754Z,14.00
2023-02-07T20:53:58.318Z,14.43
2023-02-07T20:56:25.549Z,14.20
2023-02-07T20:58:54.094Z,13.70
2023-02-07T21:01:25.849Z,13.57
2023-02-07T21:03:54.646Z,12.70
2023-02-07T21:06:22.841Z,14.63
2023-02-07T21:08:59.966Z,15.03
2023-02-07T21:11:36.003Z,12.50
2023-02-07T21:14:04.638Z,13.77
2023-02-07T21:16:31.492Z,16.70
2023-02-07T21:18:58.899Z,16.00
2023-02-07T21:21:25.553Z,16.23
2023-02-07T21:23:52.215Z,13.90
2023-02-07T21:26:19.107Z,14.60
2023-02-07T21:28:46.210Z,14.17
2023-02-07T21:31:19.458Z,13.17
2023-02-07T21:33:47.299Z,13.53
2023-02-07T21:36:16.619Z,13.87
2023-02-07T21:38:45.411Z,13.87
2023-02-07T21:41:13.160Z,14.40
2023-02-07T21:43:42.684Z,14.37
2023-02-07T21:46:12.127Z,12.30
2023-02-07T21:48:40.018Z,10.63
2023-02-07T21:51:08.439Z,12.80
2023-02-07T21:53:34.969Z,10.67
2023-02-07T21:56:08.888Z,10.70
2023-02-07T21:58:35.432Z,12.73
2023-02-07T22:01:10.960Z,11.70
2023-02-07T22:03:39.170Z,12.50
2023-02-07T22:06:06.798Z,12.37
2023-02-07T22:08:34.745Z,11.10
2023-02-07T22:11:12.361Z,10.90
2023-02-07T22:13:41.082Z,11.77
2023-02-07T22:16:15.325Z,10.70
2023-02-07T22:18:42.717Z,11.43
2023-02-07T22:21:24.863Z,10.13
2023-02-07T22:23:51.920Z,9.87
2023-02-07T22:26:19.188Z,8.97
2023-02-07T22:28:46.621Z,9.17
2023-02-07T22:31:17.234Z,9.00
2023-02-07T22:33:44.171Z,9.43
2023-02-07T22:36:19.393Z,11.60
2023-02-07T22:38:47.317Z,10.23
2023-02-07T22:41:14.679Z,11.23
2023-02-07T22:43:41.761Z,11.20
2023-02-07T22:46:12.079Z,11.80
2023-02-07T22:48:38.943Z,12.10
2023-02-07T22:51:19.146Z,11.30
2023-02-07T22:53:46.391Z,12.47
2023-02-07T22:56:13.182Z,11.50
2023-02-07T22:58:41.365Z,11.57
2023-02-07T23:01:19.489Z,12.00
2023-02-07T23:03:46.008Z,13.03
2023-02-07T23:06:12.532Z,12.43
2023-02-07T23:08:39.607Z,13.37
2023-02-07T23:11:09.180Z,12.00
2023-02-07T23:13:35.706Z,11.53
2023-02-07T23:16:02.562Z,12.60
2023-02-07T23:18:29.826Z,12.80
2023-02-07T23:20:56.673Z,13.30
2023-02-07T23:23:23.661Z,11.57
2023-02-07T23:25:50.171Z,13.30
2023-02-07T23:28:16.948Z,12.80
2023-02-07T23:30:44.118Z,12.73
2023-02-07T23:33:10.989Z,13.23
2023-02-07T23:35:37.470Z,12.83
2023-02-07T23:38:03.995Z,12.60
2023-02-07T23:40:30.739Z,13.70
2023-02-07T23:42:57.537Z,12.10
2023-02-07T23:45:24.584Z,13.63
2023-02-07T23:47:51.203Z,14.53
2023-02-07T23:50:18.428Z,15.20
2023-02-07T23:52:44.957Z,14.50
2023-02-07T23:55:12.147Z,14.97
2023-02-07T23:57:39.103Z,14.50
